sensor_id;sensor_type;location;lat;lon;timestamp;pressure;altitude;pressure_sealevel;temperature;humidity
15477;BME280;7840;42.702;23.296;2022-08-19T00:02:19;94814.91;;;22.55;63.89
15477;BME280;7840;42.702;23.296;2022-08-19T00:04:47;94813.72;;;22.44;65.16
15477;BME280;7840;42.702;23.296;2022-08-19T00:07:18;94816.44;;;22.14;66.38
15477;BME280;7840;42.702;23.296;2022-08-19T00:09:48;94820.41;;;22.17;66.29
15477;BME280;7840;42.702;23.296;2022-08-19T00:12:15;94822.50;;;22.11;66.86
15477;BME280;7840;42.702;23.296;2022-08-19T00:14:43;94825.97;;;22.03;67.92
15477;BME280;7840;42.702;23.296;2022-08-19T00:17:11;94819.50;;;21.95;68.26
15477;BME280;7840;42.702;23.296;2022-08-19T00:19:39;94825.38;;;21.59;70.38
15477;BME280;7840;42.702;23.296;2022-08-19T00:22:07;94834.78;;;21.36;72.24
15477;BME280;7840;42.702;23.296;2022-08-19T00:24:36;94830.16;;;21.45;71.24
15477;BME280;7840;42.702;23.296;2022-08-19T00:27:06;94830.28;;;21.57;70.63
15477;BME280;7840;42.702;23.296;2022-08-19T00:29:34;94828.22;;;21.63;70.72
15477;BME280;7840;42.702;23.296;2022-08-19T00:32:02;94831.56;;;21.51;70.83
15477;BME280;7840;42.702;23.296;2022-08-19T00:34:29;94820.84;;;21.16;73.23
15477;BME280;7840;42.702;23.296;2022-08-19T00:36:57;94825.41;;;21.24;73.53
15477;BME280;7840;42.702;23.296;2022-08-19T00:39:29;94821.00;;;21.37;72.82
15477;BME280;7840;42.702;23.296;2022-08-19T00:44:27;94816.22;;;21.43;71.08
15477;BME280;7840;42.702;23.296;2022-08-19T00:46:58;94819.88;;;21.12;72.30
15477;BME280;7840;42.702;23.296;2022-08-19T00:49:29;94817.06;;;21.00;73.60
15477;BME280;7840;42.702;23.296;2022-08-19T00:52:02;94820.19;;;21.19;72.87
15477;BME280;7840;42.702;23.296;2022-08-19T00:54:31;94821.94;;;21.24;72.74
15477;BME280;7840;42.702;23.296;2022-08-19T00:57:00;94809.72;;;21.26;72.38
15477;BME280;7840;42.702;23.296;2022-08-19T00:59:30;94812.28;;;21.23;72.74
15477;BME280;7840;42.702;23.296;2022-08-19T01:01:58;94815.28;;;21.21;72.29
15477;BME280;7840;42.702;23.296;2022-08-19T01:04:26;94814.50;;;21.12;72.87
15477;BME280;7840;42.702;23.296;2022-08-19T01:06:53;94815.16;;;21.00;73.12
15477;BME280;7840;42.702;23.296;2022-08-19T01:09:23;94813.25;;;21.01;73.29
15477;BME280;7840;42.702;23.296;2022-08-19T01:11:50;94813.25;;;20.84;73.97
15477;BME280;7840;42.702;23.296;2022-08-19T01:14:19;94811.69;;;20.83;74.31
15477;BME280;7840;42.702;23.296;2022-08-19T01:16:48;94823.41;;;20.87;74.32
15477;BME280;7840;42.702;23.296;2022-08-19T01:19:26;94816.41;;;21.03;73.52
15477;BME280;7840;42.702;23.296;2022-08-19T01:21:59;94817.38;;;21.07;72.92
15477;BME280;7840;42.702;23.296;2022-08-19T01:24:30;94816.09;;;20.96;73.38
15477;BME280;7840;42.702;23.296;2022-08-19T01:26:58;94811.03;;;20.86;74.75
15477;BME280;7840;42.702;23.296;2022-08-19T01:29:26;94816.91;;;20.96;74.25
15477;BME280;7840;42.702;23.296;2022-08-19T01:31:55;94812.47;;;21.00;74.12
15477;BME280;7840;42.702;23.296;2022-08-19T01:34:22;94817.38;;;20.90;74.48
15477;BME280;7840;42.702;23.296;2022-08-19T01:36:53;94817.38;;;20.90;74.45
15477;BME280;7840;42.702;23.296;2022-08-19T01:39:23;94814.84;;;20.85;74.57
15477;BME280;7840;42.702;23.296;2022-08-19T01:41:53;94817.06;;;20.83;74.69
15477;BME280;7840;42.702;23.296;2022-08-19T01:44:21;94822.44;;;20.83;74.43
15477;BME280;7840;42.702;23.296;2022-08-19T01:46:51;94815.63;;;20.76;74.19
15477;BME280;7840;42.702;23.296;2022-08-19T01:49:21;94811.97;;;20.72;74.21
15477;BME280;7840;42.702;23.296;2022-08-19T01:51:49;94825.16;;;20.74;74.15
15477;BME280;7840;42.702;23.296;2022-08-19T01:54:19;94819.59;;;20.53;75.34
15477;BME280;7840;42.702;23.296;2022-08-19T01:56:47;94819.28;;;20.63;74.71
15477;BME280;7840;42.702;23.296;2022-08-19T01:59:19;94827.16;;;20.51;74.50
15477;BME280;7840;42.702;23.296;2022-08-19T02:01:48;94821.09;;;20.19;76.23
15477;BME280;7840;42.702;23.296;2022-08-19T02:04:15;94824.59;;;20.29;76.09
15477;BME280;7840;42.702;23.296;2022-08-19T02:06:43;94830.81;;;20.46;74.41
15477;BME280;7840;42.702;23.296;2022-08-19T02:09:11;94823.78;;;20.37;75.05
15477;BME280;7840;42.702;23.296;2022-08-19T02:11:38;94823.31;;;20.35;74.89
15477;BME280;7840;42.702;23.296;2022-08-19T02:14:20;94822.19;;;20.18;75.95
15477;BME280;7840;42.702;23.296;2022-08-19T02:16:48;94823.88;;;19.97;75.97
15477;BME280;7840;42.702;23.296;2022-08-19T02:19:16;94821.66;;;19.99;77.99
15477;BME280;7840;42.702;23.296;2022-08-19T02:21:44;94817.28;;;20.20;76.89
15477;BME280;7840;42.702;23.296;2022-08-19T02:24:11;94819.66;;;20.13;77.32
15477;BME280;7840;42.702;23.296;2022-08-19T02:26:39;94826.41;;;20.02;78.21
15477;BME280;7840;42.702;23.296;2022-08-19T02:29:07;94827.03;;;19.90;78.63
15477;BME280;7840;42.702;23.296;2022-08-19T02:31:36;94823.47;;;19.73;80.60
15477;BME280;7840;42.702;23.296;2022-08-19T02:34:04;94823.47;;;19.73;81.10
15477;BME280;7840;42.702;23.296;2022-08-19T02:36:32;94821.88;;;19.72;81.45
15477;BME280;7840;42.702;23.296;2022-08-19T02:38:59;94820.78;;;19.73;80.26
15477;BME280;7840;42.702;23.296;2022-08-19T02:41:28;94820.78;;;19.73;80.76
15477;BME280;7840;42.702;23.296;2022-08-19T02:43:58;94835.22;;;19.85;80.56
15477;BME280;7840;42.702;23.296;2022-08-19T02:46:30;94829.06;;;19.93;79.47
15477;BME280;7840;42.702;23.296;2022-08-19T02:49:02;94831.44;;;19.95;79.23
15477;BME280;7840;42.702;23.296;2022-08-19T02:51:32;94829.59;;;20.04;78.62
15477;BME280;7840;42.702;23.296;2022-08-19T02:54:00;94833.22;;;20.08;78.16
15477;BME280;7840;42.702;23.296;2022-08-19T02:56:28;94832.13;;;20.09;78.07
15477;BME280;7840;42.702;23.296;2022-08-19T02:58:57;94840.22;;;20.18;77.56
15477;BME280;7840;42.702;23.296;2022-08-19T03:01:39;94832.44;;;20.16;77.31
15477;BME280;7840;42.702;23.296;2022-08-19T03:04:11;94826.47;;;20.19;76.95
15477;BME280;7840;42.702;23.296;2022-08-19T03:06:40;94831.84;;;20.19;76.82
15477;BME280;7840;42.702;23.296;2022-08-19T03:09:08;94828.66;;;20.17;76.45
15477;BME280;7840;42.702;23.296;2022-08-19T03:11:40;94823.28;;;20.17;75.80
15477;BME280;7840;42.702;23.296;2022-08-19T03:14:08;94832.63;;;20.11;75.42
15477;BME280;7840;42.702;23.296;2022-08-19T03:16:42;94822.50;;;20.17;74.98
15477;BME280;7840;42.702;23.296;2022-08-19T03:19:11;94821.25;;;20.23;74.75
15477;BME280;7840;42.702;23.296;2022-08-19T03:21:39;94828.03;;;20.20;74.60
15477;BME280;7840;42.702;23.296;2022-08-19T03:24:08;94826.78;;;20.27;74.64
15477;BME280;7840;42.702;23.296;2022-08-19T03:26:39;94830.59;;;20.26;75.24
15477;BME280;7840;42.702;23.296;2022-08-19T03:29:07;94832.63;;;20.20;75.84
15477;BME280;7840;42.702;23.296;2022-08-19T03:31:36;94833.47;;;19.89;77.83
15477;BME280;7840;42.702;23.296;2022-08-19T03:34:04;94837.38;;;19.75;78.96
15477;BME280;7840;42.702;23.296;2022-08-19T03:36:37;94829.72;;;19.59;79.92
15477;BME280;7840;42.702;23.296;2022-08-19T03:39:05;94840.72;;;19.27;83.23
15477;BME280;7840;42.702;23.296;2022-08-19T03:41:39;94841.22;;;19.29;83.56
15477;BME280;7840;42.702;23.296;2022-08-19T03:44:07;94852.84;;;19.16;85.10
15477;BME280;7840;42.702;23.296;2022-08-19T03:46:35;94850.56;;;19.09;85.97
15477;BME280;7840;42.702;23.296;2022-08-19T03:49:04;94858.00;;;19.12;86.46
15477;BME280;7840;42.702;23.296;2022-08-19T03:51:47;94861.84;;;19.20;86.42
15477;BME280;7840;42.702;23.296;2022-08-19T03:54:21;94858.31;;;19.33;85.30
15477;BME280;7840;42.702;23.296;2022-08-19T03:56:52;94863.44;;;19.43;84.39
15477;BME280;7840;42.702;23.296;2022-08-19T03:59:23;94859.66;;;19.44;84.55
15477;BME280;7840;42.702;23.296;2022-08-19T04:01:52;94864.38;;;19.47;84.46
15477;BME280;7840;42.702;23.296;2022-08-19T04:04:20;94876.13;;;19.51;84.33
15477;BME280;7840;42.702;23.296;2022-08-19T04:06:58;94878.09;;;19.59;83.20
15477;BME280;7840;42.702;23.296;2022-08-19T04:09:27;94876.66;;;19.62;82.70
15477;BME280;7840;42.702;23.296;2022-08-19T04:11:58;94871.16;;;19.67;82.24
15477;BME280;7840;42.702;23.296;2022-08-19T04:14:28;94869.63;;;19.75;81.78
15477;BME280;7840;42.702;23.296;2022-08-19T04:17:04;94870.25;;;19.72;81.62
15477;BME280;7840;42.702;23.296;2022-08-19T04:19:32;94868.13;;;19.91;80.81
15477;BME280;7840;42.702;23.296;2022-08-19T04:22:02;94869.84;;;19.87;80.47
15477;BME280;7840;42.702;23.296;2022-08-19T04:24:30;94880.38;;;19.75;81.12
15477;BME280;7840;42.702;23.296;2022-08-19T04:26:59;94878.66;;;19.79;82.00
15477;BME280;7840;42.702;23.296;2022-08-19T04:29:28;94881.91;;;19.98;81.23
15477;BME280;7840;42.702;23.296;2022-08-19T04:31:57;94881.50;;;20.13;80.74
15477;BME280;7840;42.702;23.296;2022-08-19T04:34:27;94882.00;;;20.24;79.94
15477;BME280;7840;42.702;23.296;2022-08-19T04:36:57;94878.56;;;20.32;79.28
15477;BME280;7840;42.702;23.296;2022-08-19T04:39:28;94879.69;;;20.40;79.33
15477;BME280;7840;42.702;23.296;2022-08-19T04:42:10;94883.38;;;20.53;78.78
15477;BME280;7840;42.702;23.296;2022-08-19T04:44:47;94882.75;;;20.47;79.27
15477;BME280;7840;42.702;23.296;2022-08-19T04:47:16;94882.41;;;20.48;79.24
15477;BME280;7840;42.702;23.296;2022-08-19T04:49:44;94880.72;;;20.61;79.07
15477;BME280;7840;42.702;23.296;2022-08-19T04:52:12;94875.00;;;20.71;77.88
15477;BME280;7840;42.702;23.296;2022-08-19T04:54:43;94875.97;;;20.75;78.11
15477;BME280;7840;42.702;23.296;2022-08-19T04:57:11;94878.19;;;20.73;78.55
15477;BME280;7840;42.702;23.296;2022-08-19T04:59:39;94876.28;;;20.83;76.99
15477;BME280;7840;42.702;23.296;2022-08-19T05:02:08;94878.50;;;20.98;76.33
15477;BME280;7840;42.702;23.296;2022-08-19T05:04:36;94875.97;;;21.10;75.83
15477;BME280;7840;42.702;23.296;2022-08-19T05:07:05;94881.53;;;21.14;74.86
15477;BME280;7840;42.702;23.296;2022-08-19T05:09:36;94878.19;;;21.25;73.78
15477;BME280;7840;42.702;23.296;2022-08-19T05:12:06;94877.91;;;21.36;73.49
15477;BME280;7840;42.702;23.296;2022-08-19T05:14:34;94877.06;;;21.26;73.23
15477;BME280;7840;42.702;23.296;2022-08-19T05:17:02;94889.13;;;21.46;73.10
15477;BME280;7840;42.702;23.296;2022-08-19T05:19:30;94882.63;;;21.56;72.49
15477;BME280;7840;42.702;23.296;2022-08-19T05:22:15;94887.97;;;21.73;71.45
15477;BME280;7840;42.702;23.296;2022-08-19T05:25:17;94888.41;;;21.75;71.51
15477;BME280;7840;42.702;23.296;2022-08-19T05:27:47;94892.22;;;21.83;71.04
15477;BME280;7840;42.702;23.296;2022-08-19T05:30:16;94884.50;;;21.64;70.45
15477;BME280;7840;42.702;23.296;2022-08-19T05:32:44;94892.63;;;21.55;70.74
15477;BME280;7840;42.702;23.296;2022-08-19T05:35:12;94891.41;;;21.91;70.96
15477;BME280;7840;42.702;23.296;2022-08-19T05:37:41;94873.66;;;21.90;70.27
15477;BME280;7840;42.702;23.296;2022-08-19T05:40:11;94886.16;;;21.95;68.91
15477;BME280;7840;42.702;23.296;2022-08-19T05:42:40;94888.50;;;22.05;68.93
15477;BME280;7840;42.702;23.296;2022-08-19T05:45:10;94890.34;;;22.30;68.24
15477;BME280;7840;42.702;23.296;2022-08-19T05:47:38;94888.44;;;22.22;68.46
15477;BME280;7840;42.702;23.296;2022-08-19T05:50:06;94883.06;;;22.52;68.63
15477;BME280;7840;42.702;23.296;2022-08-19T05:52:34;94876.59;;;22.74;66.08
15477;BME280;7840;42.702;23.296;2022-08-19T05:55:05;94884.53;;;23.00;65.66
15477;BME280;7840;42.702;23.296;2022-08-19T05:57:32;94888.47;;;23.23;65.10
15477;BME280;7840;42.702;23.296;2022-08-19T06:00:00;94883.72;;;23.41;62.40
15477;BME280;7840;42.702;23.296;2022-08-19T06:02:29;94885.53;;;23.49;60.64
15477;BME280;7840;42.702;23.296;2022-08-19T06:04:59;94888.59;;;23.47;61.48
15477;BME280;7840;42.702;23.296;2022-08-19T06:07:30;94891.81;;;23.74;60.34
15477;BME280;7840;42.702;23.296;2022-08-19T06:10:14;94886.69;;;23.93;59.20
15477;BME280;7840;42.702;23.296;2022-08-19T06:12:41;94882.78;;;24.03;58.42
15477;BME280;7840;42.702;23.296;2022-08-19T06:15:12;94887.97;;;24.20;57.84
15477;BME280;7840;42.702;23.296;2022-08-19T06:17:42;94882.25;;;24.34;58.04
15477;BME280;7840;42.702;23.296;2022-08-19T06:20:13;94891.81;;;23.74;59.42
15477;BME280;7840;42.702;23.296;2022-08-19T06:22:43;94887.59;;;23.85;58.86
15477;BME280;7840;42.702;23.296;2022-08-19T06:25:12;94898.69;;;24.17;58.29
15477;BME280;7840;42.702;23.296;2022-08-19T06:27:40;94891.38;;;24.54;57.71
15477;BME280;7840;42.702;23.296;2022-08-19T06:30:11;94890.13;;;24.76;56.04
15477;BME280;7840;42.702;23.296;2022-08-19T06:32:59;94884.22;;;24.98;55.75
15477;BME280;7840;42.702;23.296;2022-08-19T06:35:27;94883.19;;;25.15;55.70
15477;BME280;7840;42.702;23.296;2022-08-19T06:37:59;94885.81;;;24.99;54.89
15477;BME280;7840;42.702;23.296;2022-08-19T06:40:27;94890.75;;;25.22;54.85
15477;BME280;7840;42.702;23.296;2022-08-19T06:42:55;94882.97;;;25.48;53.73
15477;BME280;7840;42.702;23.296;2022-08-19T06:45:25;94892.34;;;25.67;52.87
15477;BME280;7840;42.702;23.296;2022-08-19T06:47:52;94892.06;;;25.84;53.11
15477;BME280;7840;42.702;23.296;2022-08-19T06:50:23;94895.50;;;25.97;52.32
15477;BME280;7840;42.702;23.296;2022-08-19T06:52:52;94886.69;;;26.15;51.41
15477;BME280;7840;42.702;23.296;2022-08-19T06:55:20;94886.88;;;26.23;51.09
15477;BME280;7840;42.702;23.296;2022-08-19T06:57:47;94880.56;;;26.50;50.20
15477;BME280;7840;42.702;23.296;2022-08-19T07:00:22;94892.91;;;26.63;49.99
15477;BME280;7840;42.702;23.296;2022-08-19T07:02:50;94893.66;;;26.80;49.14
15477;BME280;7840;42.702;23.296;2022-08-19T07:05:22;94895.22;;;26.81;48.90
15477;BME280;7840;42.702;23.296;2022-08-19T07:07:50;94898.00;;;27.00;49.13
15477;BME280;7840;42.702;23.296;2022-08-19T07:10:21;94895.53;;;26.95;48.94
15477;BME280;7840;42.702;23.296;2022-08-19T07:12:49;94899.75;;;27.08;49.80
15477;BME280;7840;42.702;23.296;2022-08-19T07:15:16;94891.75;;;27.35;48.72
15477;BME280;7840;42.702;23.296;2022-08-19T07:17:44;94901.91;;;27.38;48.67
15477;BME280;7840;42.702;23.296;2022-08-19T07:20:16;94899.66;;;27.59;48.51
15477;BME280;7840;42.702;23.296;2022-08-19T07:22:45;94891.25;;;27.87;46.62
15477;BME280;7840;42.702;23.296;2022-08-19T07:25:13;94901.75;;;28.08;46.47
15477;BME280;7840;42.702;23.296;2022-08-19T07:27:43;94893.31;;;28.17;46.62
15477;BME280;7840;42.702;23.296;2022-08-19T07:30:20;94887.63;;;28.02;46.05
15477;BME280;7840;42.702;23.296;2022-08-19T07:32:49;94889.88;;;27.97;47.12
15477;BME280;7840;42.702;23.296;2022-08-19T07:35:17;94888.53;;;28.10;46.01
15477;BME280;7840;42.702;23.296;2022-08-19T07:37:52;94887.59;;;28.45;45.72
15477;BME280;7840;42.702;23.296;2022-08-19T07:40:20;94882.47;;;28.66;45.46
15477;BME280;7840;42.702;23.296;2022-08-19T07:42:48;94885.09;;;28.85;44.81
15477;BME280;7840;42.702;23.296;2022-08-19T07:45:15;94878.34;;;28.76;44.10
15477;BME280;7840;42.702;23.296;2022-08-19T07:47:43;94884.78;;;29.17;44.31
15477;BME280;7840;42.702;23.296;2022-08-19T07:50:11;94871.91;;;29.48;43.26
15477;BME280;7840;42.702;23.296;2022-08-19T07:52:39;94886.16;;;29.64;42.95
15477;BME280;7840;42.702;23.296;2022-08-19T07:55:13;94885.16;;;29.79;42.54
15477;BME280;7840;42.702;23.296;2022-08-19T07:57:41;94885.38;;;30.01;42.32
15477;BME280;7840;42.702;23.296;2022-08-19T08:00:09;94879.84;;;29.93;41.45
15477;BME280;7840;42.702;23.296;2022-08-19T08:02:37;94886.19;;;30.05;42.01
15477;BME280;7840;42.702;23.296;2022-08-19T08:05:06;94882.59;;;29.97;40.97
15477;BME280;7840;42.702;23.296;2022-08-19T08:07:51;94880.72;;;30.05;41.36
15477;BME280;7840;42.702;23.296;2022-08-19T08:10:37;94882.28;;;30.46;39.91
15477;BME280;7840;42.702;23.296;2022-08-19T08:13:05;94884.38;;;30.64;39.58
15477;BME280;7840;42.702;23.296;2022-08-19T08:15:33;94884.63;;;30.99;38.93
15477;BME280;7840;42.702;23.296;2022-08-19T08:18:01;94876.59;;;31.28;38.50
15477;BME280;7840;42.702;23.296;2022-08-19T08:20:28;94874.34;;;31.44;37.71
15477;BME280;7840;42.702;23.296;2022-08-19T08:22:56;94867.34;;;31.50;38.26
15477;BME280;7840;42.702;23.296;2022-08-19T08:25:51;94865.84;;;31.71;37.33
15477;BME280;7840;42.702;23.296;2022-08-19T08:28:20;94865.88;;;31.78;37.01
15477;BME280;7840;42.702;23.296;2022-08-19T08:30:50;94863.53;;;31.91;37.08
15477;BME280;7840;42.702;23.296;2022-08-19T08:33:22;94862.78;;;31.94;36.63
15477;BME280;7840;42.702;23.296;2022-08-19T08:35:50;94860.06;;;32.11;35.97
15477;BME280;7840;42.702;23.296;2022-08-19T08:38:18;94861.25;;;32.32;36.10
15477;BME280;7840;42.702;23.296;2022-08-19T08:40:52;94860.47;;;32.71;36.61
15477;BME280;7840;42.702;23.296;2022-08-19T08:43:37;94864.81;;;32.57;36.24
15477;BME280;7840;42.702;23.296;2022-08-19T08:46:10;94856.56;;;32.64;36.46
15477;BME280;7840;42.702;23.296;2022-08-19T08:48:56;94860.88;;;32.73;35.66
15477;BME280;7840;42.702;23.296;2022-08-19T08:51:28;94857.72;;;32.92;35.70
15477;BME280;7840;42.702;23.296;2022-08-19T08:54:00;94849.81;;;33.23;33.69
15477;BME280;7840;42.702;23.296;2022-08-19T08:56:50;94847.13;;;33.08;34.33
15477;BME280;7840;42.702;23.296;2022-08-19T08:59:23;94843.09;;;33.45;33.20
15477;BME280;7840;42.702;23.296;2022-08-19T09:01:53;94847.66;;;33.73;32.76
15477;BME280;7840;42.702;23.296;2022-08-19T09:04:21;94836.13;;;33.15;34.21
15477;BME280;7840;42.702;23.296;2022-08-19T09:07:25;94832.97;;;33.13;34.07
15477;BME280;7840;42.702;23.296;2022-08-19T09:10:19;94833.53;;;33.67;33.52
15477;BME280;7840;42.702;23.296;2022-08-19T09:15:25;94842.63;;;33.57;32.21
15477;BME280;7840;42.702;23.296;2022-08-19T09:17:59;94824.06;;;33.75;31.44
15477;BME280;7840;42.702;23.296;2022-08-19T09:20:29;94821.34;;;34.35;30.33
15477;BME280;7840;42.702;23.296;2022-08-19T09:23:11;94822.91;;;34.80;30.55
15477;BME280;7840;42.702;23.296;2022-08-19T09:25:44;94825.75;;;35.11;29.42
15477;BME280;7840;42.702;23.296;2022-08-19T09:28:22;94821.25;;;35.28;28.77
15477;BME280;7840;42.702;23.296;2022-08-19T09:30:51;94826.56;;;35.76;27.63
15477;BME280;7840;42.702;23.296;2022-08-19T09:33:23;94813.84;;;36.09;26.58
15477;BME280;7840;42.702;23.296;2022-08-19T09:36:15;94821.84;;;36.54;26.00
15477;BME280;7840;42.702;23.296;2022-08-19T09:38:45;94813.00;;;36.63;26.74
15477;BME280;7840;42.702;23.296;2022-08-19T09:41:36;94815.66;;;36.93;26.71
15477;BME280;7840;42.702;23.296;2022-08-19T09:44:05;94813.19;;;37.19;25.24
15477;BME280;7840;42.702;23.296;2022-08-19T09:46:56;94811.13;;;37.03;25.18
15477;BME280;7840;42.702;23.296;2022-08-19T09:49:41;94810.97;;;36.90;25.15
15477;BME280;7840;42.702;23.296;2022-08-19T09:52:30;94812.09;;;35.96;26.39
15477;BME280;7840;42.702;23.296;2022-08-19T09:58:03;94813.72;;;34.98;26.43
15477;BME280;7840;42.702;23.296;2022-08-19T10:01:00;94796.91;;;34.85;27.31
15477;BME280;7840;42.702;23.296;2022-08-19T10:03:46;94790.41;;;35.06;26.04
15477;BME280;7840;42.702;23.296;2022-08-19T10:06:18;94789.59;;;35.40;26.70
15477;BME280;7840;42.702;23.296;2022-08-19T10:08:49;94791.91;;;35.14;26.83
15477;BME280;7840;42.702;23.296;2022-08-19T10:11:23;94788.47;;;35.03;26.68
15477;BME280;7840;42.702;23.296;2022-08-19T10:13:54;94785.72;;;35.03;26.43
15477;BME280;7840;42.702;23.296;2022-08-19T10:16:48;94783.88;;;35.57;26.89
15477;BME280;7840;42.702;23.296;2022-08-19T10:19:28;94777.84;;;35.05;27.04
15477;BME280;7840;42.702;23.296;2022-08-19T10:22:29;94782.28;;;35.60;26.77
15477;BME280;7840;42.702;23.296;2022-08-19T10:24:58;94775.09;;;35.97;26.51
15477;BME280;7840;42.702;23.296;2022-08-19T10:27:26;94779.41;;;36.21;25.45
15477;BME280;7840;42.702;23.296;2022-08-19T10:29:54;94770.44;;;36.40;26.07
15477;BME280;7840;42.702;23.296;2022-08-19T10:32:45;94774.06;;;36.81;25.78
15477;BME280;7840;42.702;23.296;2022-08-19T10:35:39;94767.09;;;37.16;24.94
15477;BME280;7840;42.702;23.296;2022-08-19T10:38:21;94760.44;;;36.93;25.74
15477;BME280;7840;42.702;23.296;2022-08-19T10:40:53;94772.44;;;35.28;26.83
15477;BME280;7840;42.702;23.296;2022-08-19T10:43:22;94774.00;;;35.60;26.45
15477;BME280;7840;42.702;23.296;2022-08-19T10:45:55;94770.75;;;35.96;25.87
15477;BME280;7840;42.702;23.296;2022-08-19T10:48:25;94768.47;;;36.41;25.37
15477;BME280;7840;42.702;23.296;2022-08-19T10:50:59;94759.66;;;36.69;25.86
15477;BME280;7840;42.702;23.296;2022-08-19T10:53:44;94757.44;;;37.24;25.70
15477;BME280;7840;42.702;23.296;2022-08-19T10:56:14;94754.59;;;37.84;24.43
15477;BME280;7840;42.702;23.296;2022-08-19T10:59:00;94743.22;;;37.82;23.98
15477;BME280;7840;42.702;23.296;2022-08-19T11:01:42;94752.88;;;38.22;23.36
15477;BME280;7840;42.702;23.296;2022-08-19T11:04:24;94751.91;;;38.62;22.83
15477;BME280;7840;42.702;23.296;2022-08-19T11:07:01;94758.72;;;39.02;23.21
15477;BME280;7840;42.702;23.296;2022-08-19T11:10:08;94749.72;;;39.15;22.08
15477;BME280;7840;42.702;23.296;2022-08-19T11:12:49;94741.94;;;39.64;22.35
15477;BME280;7840;42.702;23.296;2022-08-19T11:15:20;94746.41;;;38.29;23.84
15477;BME280;7840;42.702;23.296;2022-08-19T11:17:48;94745.59;;;37.43;24.64
15477;BME280;7840;42.702;23.296;2022-08-19T11:20:18;94737.13;;;37.14;24.73
15477;BME280;7840;42.702;23.296;2022-08-19T11:22:54;94727.06;;;37.60;24.71
15477;BME280;7840;42.702;23.296;2022-08-19T11:25:26;94733.56;;;37.70;24.80
15477;BME280;7840;42.702;23.296;2022-08-19T11:27:56;94728.41;;;37.16;25.20
15477;BME280;7840;42.702;23.296;2022-08-19T11:30:26;94733.56;;;37.70;25.06
15477;BME280;7840;42.702;23.296;2022-08-19T11:32:54;94722.63;;;37.46;25.44
15477;BME280;7840;42.702;23.296;2022-08-19T11:35:27;94737.00;;;36.35;25.78
15477;BME280;7840;42.702;23.296;2022-08-19T11:37:57;94719.16;;;35.12;26.82
15477;BME280;7840;42.702;23.296;2022-08-19T11:40:43;94716.72;;;35.17;27.46
15477;BME280;7840;42.702;23.296;2022-08-19T11:43:11;94720.06;;;36.13;25.83
15477;BME280;7840;42.702;23.296;2022-08-19T11:45:39;94722.66;;;36.67;25.58
15477;BME280;7840;42.702;23.296;2022-08-19T11:48:07;94710.13;;;37.22;25.40
15477;BME280;7840;42.702;23.296;2022-08-19T11:50:37;94705.25;;;37.98;24.06
15477;BME280;7840;42.702;23.296;2022-08-19T11:53:38;94710.03;;;38.59;23.51
15477;BME280;7840;42.702;23.296;2022-08-19T11:58:55;94701.75;;;39.94;22.66
15477;BME280;7840;42.702;23.296;2022-08-19T12:01:46;94710.13;;;40.29;22.32
15477;BME280;7840;42.702;23.296;2022-08-19T12:04:22;94698.84;;;40.23;22.17
15477;BME280;7840;42.702;23.296;2022-08-19T12:06:53;94689.66;;;38.21;23.26
15477;BME280;7840;42.702;23.296;2022-08-19T12:09:24;94687.88;;;38.59;24.16
15477;BME280;7840;42.702;23.296;2022-08-19T12:11:52;94693.53;;;39.52;22.72
15477;BME280;7840;42.702;23.296;2022-08-19T12:14:20;94694.13;;;38.93;22.42
15477;BME280;7840;42.702;23.296;2022-08-19T12:16:48;94685.34;;;39.36;22.95
15477;BME280;7840;42.702;23.296;2022-08-19T12:19:15;94680.47;;;39.40;23.61
15477;BME280;7840;42.702;23.296;2022-08-19T12:21:43;94678.31;;;38.77;22.81
15477;BME280;7840;42.702;23.296;2022-08-19T12:24:11;94673.41;;;38.68;22.71
15477;BME280;7840;42.702;23.296;2022-08-19T12:26:40;94675.91;;;39.33;22.41
15477;BME280;7840;42.702;23.296;2022-08-19T12:29:08;94675.13;;;39.46;22.86
15477;BME280;7840;42.702;23.296;2022-08-19T12:31:38;94667.59;;;40.32;21.53
15477;BME280;7840;42.702;23.296;2022-08-19T12:34:08;94669.50;;;39.75;21.82
15477;BME280;7840;42.702;23.296;2022-08-19T12:36:38;94665.66;;;40.19;21.82
15477;BME280;7840;42.702;23.296;2022-08-19T12:39:08;94655.78;;;41.19;20.84
15477;BME280;7840;42.702;23.296;2022-08-19T12:41:40;94656.53;;;41.82;20.55
15477;BME280;7840;42.702;23.296;2022-08-19T12:44:08;94655.16;;;41.55;20.24
15477;BME280;7840;42.702;23.296;2022-08-19T12:46:38;94655.47;;;39.91;21.98
15477;BME280;7840;42.702;23.296;2022-08-19T12:49:06;94650.84;;;39.37;22.26
15477;BME280;7840;42.702;23.296;2022-08-19T12:51:33;94644.47;;;38.98;23.40
15477;BME280;7840;42.702;23.296;2022-08-19T12:54:01;94644.94;;;40.46;21.40
15477;BME280;7840;42.702;23.296;2022-08-19T12:56:29;94639.84;;;41.50;20.82
15477;BME280;7840;42.702;23.296;2022-08-19T12:59:06;94640.03;;;41.25;20.46
15477;BME280;7840;42.702;23.296;2022-08-19T13:01:52;94648.16;;;41.41;20.22
15477;BME280;7840;42.702;23.296;2022-08-19T13:04:21;94635.72;;;41.64;20.13
15477;BME280;7840;42.702;23.296;2022-08-19T13:06:49;94630.75;;;42.08;19.83
15477;BME280;7840;42.702;23.296;2022-08-19T13:09:19;94631.84;;;42.20;19.67
15477;BME280;7840;42.702;23.296;2022-08-19T13:12:02;94630.16;;;42.23;19.33
15477;BME280;7840;42.702;23.296;2022-08-19T13:14:35;94629.53;;;42.74;19.25
15477;BME280;7840;42.702;23.296;2022-08-19T13:17:03;94629.34;;;42.86;19.18
15477;BME280;7840;42.702;23.296;2022-08-19T13:19:32;94619.34;;;43.31;18.54
15477;BME280;7840;42.702;23.296;2022-08-19T13:21:59;94620.56;;;43.73;18.59
15477;BME280;7840;42.702;23.296;2022-08-19T13:24:31;94630.31;;;43.77;18.51
15477;BME280;7840;42.702;23.296;2022-08-19T13:27:03;94623.09;;;43.94;18.38
15477;BME280;7840;42.702;23.296;2022-08-19T13:29:36;94620.69;;;44.02;18.05
15477;BME280;7840;42.702;23.296;2022-08-19T13:32:21;94617.56;;;44.09;18.32
15477;BME280;7840;42.702;23.296;2022-08-19T13:35:06;94606.91;;;43.99;18.57
15477;BME280;7840;42.702;23.296;2022-08-19T13:37:47;94617.84;;;44.35;17.74